Terminal Aerodrome Forecast
Issued by NWS

Home | Current Version | Previous Version | Text Only | Print | Product List | Glossary On
Versions: 1 2 3 4 5 6 7 8 9 10 11 12 13 14 15 16
000
FTUS43 KMPX 192300
TAFRWF
TAF
KRWF 192329Z 2000/2024 15006KT 5SM BR SCT008 OVC012
     FM200300 16009KT 4SM BR OVC008
     FM200900 15008KT 2SM BR OVC004
     FM201500 17008KT 5SM BR OVC008
     FM202000 18009KT P6SM OVC015=

USA.gov is the U.S. government's official web portal to all federal, state and local government web resources and services.